createdAt,value
2022-08-29T00:01:23.589Z,3.45
2022-08-29T00:03:51.075Z,3.10
2022-08-29T00:06:18.386Z,3.65
2022-08-29T00:08:45.764Z,3.50
2022-08-29T00:11:13.654Z,3.95
2022-08-29T00:13:41.412Z,3.50
2022-08-29T00:16:08.967Z,3.60
2022-08-29T00:18:36.560Z,3.90
2022-08-29T00:21:05.210Z,3.20
2022-08-29T00:23:33.529Z,3.35
2022-08-29T00:26:00.752Z,3.60
2022-08-29T00:28:28.459Z,4.30
2022-08-29T00:30:55.904Z,4.03
2022-08-29T00:33:23.088Z,3.97
2022-08-29T00:35:50.316Z,4.20
2022-08-29T00:38:19.365Z,4.50
2022-08-29T00:40:51.942Z,4.05
2022-08-29T00:43:24.683Z,3.92
2022-08-29T00:46:00.755Z,4.28
2022-08-29T00:48:28.889Z,4.30
2022-08-29T00:51:01.285Z,3.90
2022-08-29T00:53:34.167Z,3.67
2022-08-29T00:56:03.289Z,4.40
2022-08-29T00:58:35.942Z,4.47
2022-08-29T01:01:04.778Z,4.03
2022-08-29T01:03:35.373Z,4.38
2022-08-29T01:06:03.648Z,3.72
2022-08-29T01:08:31.492Z,4.13
2022-08-29T01:11:17.720Z,4.43
2022-08-29T01:13:48.630Z,4.20
2022-08-29T01:16:17.027Z,3.75
2022-08-29T01:18:47.546Z,4.20
2022-08-29T01:21:18.481Z,4.23
2022-08-29T01:24:01.298Z,4.57
2022-08-29T01:26:30.625Z,3.50
2022-08-29T01:28:58.749Z,4.68
2022-08-29T01:31:46.090Z,3.60
2022-08-29T01:34:20.104Z,3.90
2022-08-29T01:36:55.589Z,3.80
2022-08-29T01:39:28.494Z,3.28
2022-08-29T01:41:57.309Z,4.30
2022-08-29T01:44:26.417Z,4.13
2022-08-29T01:47:01.866Z,4.20
2022-08-29T01:49:32.739Z,4.28
2022-08-29T01:52:02.013Z,4.35
2022-08-29T01:54:30.728Z,4.13
2022-08-29T01:56:58.279Z,3.78
2022-08-29T01:59:27.867Z,4.10
2022-08-29T02:02:08.245Z,4.45
2022-08-29T02:04:35.872Z,5.65
2022-08-29T02:07:03.987Z,4.13
2022-08-29T02:09:31.253Z,4.32
2022-08-29T02:12:03.171Z,4.72
2022-08-29T02:14:30.559Z,4.32
2022-08-29T02:16:57.770Z,3.60
2022-08-29T02:19:25.240Z,4.05
2022-08-29T02:21:52.570Z,3.80
2022-08-29T02:24:25.795Z,4.68
2022-08-29T02:26:55.977Z,4.38
2022-08-29T02:29:24.288Z,4.68
2022-08-29T02:31:52.097Z,4.05
2022-08-29T02:34:19.970Z,3.95
2022-08-29T02:36:49.272Z,4.32
2022-08-29T02:39:18.281Z,3.90
2022-08-29T02:41:45.849Z,3.78
2022-08-29T02:44:13.346Z,3.92
2022-08-29T02:46:40.618Z,3.92
2022-08-29T02:49:08.066Z,3.88
2022-08-29T02:51:35.255Z,4.70
2022-08-29T02:54:03.451Z,4.28
2022-08-29T02:56:31.217Z,4.47
2022-08-29T02:58:59.047Z,4.13
2022-08-29T03:01:26.551Z,3.80
2022-08-29T03:03:54.150Z,3.38
2022-08-29T03:06:22.165Z,3.97
2022-08-29T03:08:50.089Z,3.85
2022-08-29T03:11:18.290Z,4.05
2022-08-29T03:13:46.112Z,3.90
2022-08-29T03:16:14.079Z,3.97
2022-08-29T03:18:41.844Z,3.95
2022-08-29T03:21:20.953Z,3.78
2022-08-29T03:23:50.421Z,3.75
2022-08-29T03:26:18.273Z,3.90
2022-08-29T03:28:45.579Z,3.75
2022-08-29T03:31:13.562Z,4.18
2022-08-29T03:33:41.927Z,3.97
2022-08-29T03:36:14.005Z,3.78
2022-08-29T03:38:43.845Z,3.95
2022-08-29T03:41:11.785Z,3.83
2022-08-29T03:43:39.007Z,3.70
2022-08-29T03:46:06.608Z,3.55
2022-08-29T03:48:33.987Z,3.88
2022-08-29T03:51:01.233Z,3.40
2022-08-29T03:53:28.732Z,3.83
2022-08-29T03:55:58.172Z,3.88
2022-08-29T03:58:25.618Z,3.03
2022-08-29T04:00:53.141Z,3.75
2022-08-29T04:03:20.433Z,4.10
2022-08-29T04:05:55.905Z,3.83
2022-08-29T04:08:23.697Z,3.58
2022-08-29T04:10:50.925Z,3.70
2022-08-29T04:13:18.462Z,3.67
2022-08-29T04:15:45.773Z,3.70
2022-08-29T04:18:13.311Z,4.07
2022-08-29T04:20:45.085Z,3.45
2022-08-29T04:23:14.223Z,4.15
2022-08-29T04:25:43.650Z,3.50
2022-08-29T04:28:14.029Z,3.63
2022-08-29T04:30:51.873Z,3.75
2022-08-29T04:33:23.045Z,4.22
2022-08-29T04:35:51.657Z,3.72
2022-08-29T04:38:19.368Z,4.22
2022-08-29T04:40:47.517Z,4.25
2022-08-29T04:43:14.978Z,4.13
2022-08-29T04:45:42.184Z,4.03
2022-08-29T04:48:10.974Z,4.25
2022-08-29T04:50:38.348Z,4.53
2022-08-29T04:53:05.598Z,3.97
2022-08-29T04:55:33.169Z,4.82
2022-08-29T04:58:01.527Z,4.35
2022-08-29T05:00:31.267Z,4.23
2022-08-29T05:02:58.743Z,4.43
2022-08-29T05:05:26.741Z,4.88
2022-08-29T05:07:54.064Z,4.40
2022-08-29T05:10:22.604Z,4.55
2022-08-29T05:12:50.031Z,4.40
2022-08-29T05:15:17.594Z,4.40
2022-08-29T05:17:45.622Z,4.35
2022-08-29T05:20:13.488Z,4.05
2022-08-29T05:22:42.354Z,4.35
2022-08-29T05:25:17.286Z,4.63
2022-08-29T05:27:46.087Z,5.05
2022-08-29T05:30:13.671Z,4.45
2022-08-29T05:32:40.912Z,4.43
2022-08-29T05:35:09.422Z,4.30
2022-08-29T05:37:37.407Z,4.80
2022-08-29T05:40:05.300Z,4.45
2022-08-29T05:42:32.563Z,3.45
2022-08-29T05:44:59.975Z,3.38
2022-08-29T05:47:27.258Z,3.92
2022-08-29T05:49:54.428Z,4.00
2022-08-29T05:52:21.924Z,3.33
2022-08-29T05:54:49.515Z,3.83
2022-08-29T05:57:20.397Z,3.67
2022-08-29T05:59:50.006Z,3.45
2022-08-29T06:02:18.319Z,3.25
2022-08-29T06:04:46.102Z,3.67
2022-08-29T06:07:14.167Z,3.30
2022-08-29T06:09:42.646Z,2.75
2022-08-29T06:12:11.897Z,2.75
2022-08-29T06:14:40.106Z,2.13
2022-08-29T06:17:09.724Z,3.30
2022-08-29T06:19:39.649Z,2.35
2022-08-29T06:22:10.186Z,1.90
2022-08-29T06:24:39.524Z,1.50
2022-08-29T06:27:06.774Z,1.63
2022-08-29T06:29:34.527Z,1.30
2022-08-29T06:32:11.295Z,1.05
2022-08-29T06:34:38.791Z,1.40
2022-08-29T06:37:06.174Z,1.17
2022-08-29T06:39:33.459Z,1.38
2022-08-29T06:42:01.109Z,1.08
2022-08-29T06:44:31.110Z,1.10
2022-08-29T06:46:59.214Z,1.20
2022-08-29T06:49:27.889Z,1.30
2022-08-29T06:51:58.216Z,1.50
2022-08-29T06:54:28.555Z,1.08
2022-08-29T06:56:57.811Z,1.40
2022-08-29T06:59:26.722Z,1.00
2022-08-29T07:01:55.404Z,1.20
2022-08-29T07:04:23.087Z,1.20
2022-08-29T07:06:54.143Z,1.00
2022-08-29T07:09:21.648Z,0.68
2022-08-29T07:11:49.110Z,1.25
2022-08-29T07:14:16.395Z,1.00
2022-08-29T07:16:43.695Z,1.17
2022-08-29T07:19:11.728Z,0.77
2022-08-29T07:21:39.465Z,0.70
2022-08-29T07:24:07.719Z,0.75
2022-08-29T07:26:39.091Z,1.02
2022-08-29T07:29:11.569Z,0.90
2022-08-29T07:31:39.356Z,1.08
2022-08-29T07:34:07.647Z,0.75
2022-08-29T07:36:36.012Z,1.02
2022-08-29T07:39:08.494Z,1.10
2022-08-29T07:41:36.209Z,1.00
2022-08-29T07:44:03.794Z,1.02
2022-08-29T07:46:31.728Z,0.60
2022-08-29T07:48:59.679Z,0.70
2022-08-29T07:51:27.291Z,0.50
2022-08-29T07:53:56.340Z,0.40
2022-08-29T07:56:32.332Z,0.47
2022-08-29T07:59:02.315Z,0.50
2022-08-29T08:01:29.790Z,0.77
2022-08-29T08:03:57.294Z,0.85
2022-08-29T08:06:27.212Z,0.60
2022-08-29T08:08:55.689Z,0.80
2022-08-29T08:11:24.578Z,0.70
2022-08-29T08:13:54.244Z,0.50
2022-08-29T08:16:25.122Z,0.65
2022-08-29T08:18:53.325Z,0.70
2022-08-29T08:21:21.382Z,0.45
2022-08-29T08:23:48.863Z,0.80
2022-08-29T08:26:17.183Z,0.60
2022-08-29T08:28:45.500Z,0.43
2022-08-29T08:31:15.222Z,0.75
2022-08-29T08:33:44.457Z,0.70
2022-08-29T08:36:22.575Z,0.70
2022-08-29T08:38:51.561Z,0.70
2022-08-29T08:41:32.886Z,0.70
2022-08-29T08:44:26.992Z,0.57
2022-08-29T08:47:01.651Z,0.80
2022-08-29T08:49:47.992Z,0.70
2022-08-29T08:52:21.001Z,0.70
2022-08-29T08:54:57.455Z,0.40
2022-08-29T08:57:31.108Z,0.95
2022-08-29T08:59:59.100Z,0.50
2022-08-29T09:02:56.478Z,0.38
2022-08-29T09:05:46.037Z,0.50
2022-08-29T09:08:45.175Z,1.20
2022-08-29T09:11:33.513Z,0.70
2022-08-29T09:14:23.999Z,0.40
2022-08-29T09:16:56.977Z,0.50
2022-08-29T09:19:25.224Z,0.55
2022-08-29T09:21:59.234Z,0.57
2022-08-29T09:25:05.096Z,0.45
2022-08-29T09:27:34.569Z,0.65
2022-08-29T09:30:13.469Z,0.60
2022-08-29T09:33:02.021Z,0.75
2022-08-29T09:35:34.054Z,0.50
2022-08-29T09:38:08.588Z,0.80
2022-08-29T09:40:50.421Z,0.35
2022-08-29T09:43:29.702Z,0.60
2022-08-29T09:46:11.989Z,0.68
2022-08-29T09:48:42.233Z,0.98
2022-08-29T09:51:11.709Z,3.13
2022-08-29T09:53:39.351Z,1.45
2022-08-29T09:56:15.973Z,0.73
2022-08-29T09:58:43.670Z,0.60
2022-08-29T10:01:18.693Z,0.70
2022-08-29T10:04:01.497Z,0.70
2022-08-29T10:06:32.637Z,0.60
2022-08-29T10:09:32.339Z,1.20
2022-08-29T10:12:24.811Z,0.85
2022-08-29T10:14:56.378Z,0.50
2022-08-29T10:17:55.879Z,1.25
2022-08-29T10:20:35.441Z,0.60
2022-08-29T10:23:31.925Z,0.75
2022-08-29T10:26:05.811Z,0.88
2022-08-29T10:28:43.328Z,1.20
2022-08-29T10:31:27.047Z,0.52
2022-08-29T10:34:29.718Z,0.70
2022-08-29T10:37:03.452Z,0.80
2022-08-29T10:39:39.052Z,0.90
2022-08-29T10:42:12.538Z,0.80
2022-08-29T10:45:25.625Z,0.65
2022-08-29T10:48:11.671Z,0.73
2022-08-29T10:51:05.861Z,1.00
2022-08-29T10:53:43.927Z,0.80
2022-08-29T10:56:22.860Z,1.17
2022-08-29T10:59:20.821Z,1.00
2022-08-29T11:01:55.653Z,0.90
2022-08-29T11:04:28.022Z,0.90
2022-08-29T11:07:04.784Z,1.20
2022-08-29T11:09:45.638Z,0.82
2022-08-29T11:12:19.661Z,0.70
2022-08-29T11:14:53.984Z,0.65
2022-08-29T11:17:26.720Z,0.80
2022-08-29T11:20:02.350Z,0.85
2022-08-29T11:22:40.412Z,0.82
2022-08-29T11:25:12.129Z,0.75
2022-08-29T11:28:06.745Z,0.50
2022-08-29T11:31:24.869Z,0.55
2022-08-29T11:34:03.479Z,0.80
2022-08-29T11:36:57.345Z,0.77
2022-08-29T11:39:41.099Z,0.70
2022-08-29T11:42:12.164Z,0.70
2022-08-29T11:44:53.184Z,0.50
2022-08-29T11:47:45.015Z,0.70
2022-08-29T11:50:15.337Z,0.82
2022-08-29T11:53:03.097Z,0.65
2022-08-29T11:55:32.129Z,0.80
2022-08-29T11:58:09.810Z,0.98
2022-08-29T12:00:48.972Z,0.98
2022-08-29T12:03:35.113Z,0.60
2022-08-29T12:06:13.166Z,0.68
2022-08-29T12:08:54.059Z,0.65
2022-08-29T12:11:21.383Z,0.73
2022-08-29T12:13:48.807Z,0.45
2022-08-29T12:16:19.097Z,0.73
2022-08-29T12:18:52.872Z,0.70
2022-08-29T12:21:38.336Z,1.15
2022-08-29T12:24:25.904Z,0.70
2022-08-29T12:26:54.895Z,0.50
2022-08-29T12:29:31.150Z,0.70
2022-08-29T12:32:28.528Z,0.60
2022-08-29T12:35:26.984Z,0.57
2022-08-29T12:38:31.286Z,0.65
2022-08-29T12:41:07.165Z,0.52
2022-08-29T12:43:41.429Z,0.70
2022-08-29T12:46:17.481Z,0.60
2022-08-29T12:48:57.969Z,0.98
2022-08-29T12:51:34.127Z,1.30
2022-08-29T12:54:01.761Z,0.70
2022-08-29T12:56:29.078Z,1.00
2022-08-29T12:58:59.425Z,0.60
2022-08-29T13:01:40.168Z,1.33
2022-08-29T13:04:10.472Z,0.90
2022-08-29T13:07:10.065Z,0.93
2022-08-29T13:09:53.068Z,0.90
2022-08-29T13:12:35.266Z,0.90
2022-08-29T13:15:09.277Z,1.10
2022-08-29T13:17:40.205Z,0.90
2022-08-29T13:20:38.834Z,1.15
2022-08-29T13:23:12.371Z,1.00
2022-08-29T13:26:04.740Z,0.90
2022-08-29T13:28:43.885Z,1.23
2022-08-29T13:31:14.269Z,1.40
2022-08-29T13:33:41.736Z,1.17
2022-08-29T13:36:27.054Z,0.98
2022-08-29T13:39:17.138Z,0.98
2022-08-29T13:41:47.698Z,0.88
2022-08-29T13:44:21.097Z,0.98
2022-08-29T13:46:51.538Z,1.00
2022-08-29T13:49:24.887Z,1.35
2022-08-29T13:51:52.585Z,1.10
2022-08-29T13:54:20.185Z,0.98
2022-08-29T13:56:50.419Z,1.00
2022-08-29T13:59:21.712Z,1.00
2022-08-29T14:04:40.002Z,0.90
2022-08-29T14:07:13.524Z,0.77
2022-08-29T14:09:44.521Z,0.73
2022-08-29T14:12:14.220Z,0.70
2022-08-29T14:14:43.439Z,1.10
2022-08-29T14:17:14.270Z,0.90
2022-08-29T14:19:47.277Z,0.80
2022-08-29T14:22:15.055Z,1.08
2022-08-29T14:24:42.729Z,0.47
2022-08-29T14:27:10.581Z,1.13
2022-08-29T14:29:37.898Z,0.98
2022-08-29T14:32:05.148Z,1.05
2022-08-29T14:34:33.232Z,0.82
2022-08-29T14:37:01.662Z,1.13
2022-08-29T14:39:29.465Z,1.00
2022-08-29T14:41:57.238Z,0.90
2022-08-29T14:44:24.704Z,0.85
2022-08-29T14:46:51.988Z,0.95
2022-08-29T14:49:19.770Z,1.10
2022-08-29T14:51:47.265Z,0.88
2022-08-29T14:54:14.989Z,0.80
2022-08-29T14:56:50.683Z,0.95
2022-08-29T14:59:19.834Z,0.82
2022-08-29T15:01:52.890Z,0.80
2022-08-29T15:04:34.844Z,0.75
2022-08-29T15:07:06.982Z,1.02
2022-08-29T15:09:34.779Z,0.90
2022-08-29T15:12:02.527Z,1.27
2022-08-29T15:14:30.101Z,0.73
2022-08-29T15:16:57.301Z,1.15
2022-08-29T15:20:15.870Z,0.77
2022-08-29T15:22:12.917Z,0.88
2022-08-29T15:24:40.641Z,0.95
2022-08-29T15:27:08.749Z,1.27
2022-08-29T15:29:40.926Z,0.90
2022-08-29T15:32:08.928Z,1.00
2022-08-29T15:34:36.107Z,0.73
2022-08-29T15:37:05.369Z,0.80
2022-08-29T15:39:33.044Z,0.80
2022-08-29T15:42:02.741Z,0.73
2022-08-29T15:44:30.427Z,1.00
2022-08-29T15:46:58.512Z,0.80
2022-08-29T15:49:28.917Z,1.40
2022-08-29T15:51:57.492Z,0.80
2022-08-29T15:54:26.257Z,0.80
2022-08-29T15:56:53.915Z,0.73
2022-08-29T15:59:35.741Z,1.15
2022-08-29T16:02:11.876Z,0.82
2022-08-29T16:04:44.809Z,0.90
2022-08-29T16:07:13.648Z,1.08
2022-08-29T16:09:41.578Z,0.73
2022-08-29T16:12:10.488Z,0.70
2022-08-29T16:14:58.565Z,0.90
2022-08-29T16:17:27.066Z,1.05
2022-08-29T16:19:54.944Z,0.77
2022-08-29T16:22:22.240Z,0.93
2022-08-29T16:24:49.689Z,1.05
2022-08-29T16:27:22.084Z,0.98
2022-08-29T16:29:49.326Z,0.70
2022-08-29T16:32:17.054Z,0.65
2022-08-29T16:34:44.699Z,0.73
2022-08-29T16:37:12.113Z,0.80
2022-08-29T16:39:39.561Z,1.17
2022-08-29T16:42:06.946Z,0.77
2022-08-29T16:44:34.162Z,0.65
2022-08-29T16:47:02.091Z,0.80
2022-08-29T16:49:35.558Z,1.00
2022-08-29T16:52:14.077Z,0.95
2022-08-29T16:54:54.200Z,0.98
2022-08-29T16:57:43.317Z,0.70
2022-08-29T17:00:18.383Z,0.98
2022-08-29T17:02:55.986Z,0.95
2022-08-29T17:05:27.821Z,0.93
2022-08-29T17:08:00.909Z,0.70
2022-08-29T17:10:34.636Z,0.73
2022-08-29T17:13:12.808Z,0.47
2022-08-29T17:15:43.538Z,0.82
2022-08-29T17:18:16.886Z,0.85
2022-08-29T17:20:53.739Z,0.95
2022-08-29T17:23:28.877Z,0.70
2022-08-29T17:26:03.935Z,1.15
2022-08-29T17:28:34.919Z,1.58
2022-08-29T17:31:03.648Z,0.95
2022-08-29T17:33:31.333Z,0.57
2022-08-29T17:35:58.788Z,0.93
2022-08-29T17:38:27.005Z,0.88
2022-08-29T17:41:01.694Z,1.42
2022-08-29T17:43:32.889Z,0.80
2022-08-29T17:46:00.292Z,1.00
2022-08-29T17:48:27.694Z,0.93
2022-08-29T17:50:55.218Z,1.33
2022-08-29T17:53:25.078Z,1.58
2022-08-29T17:55:53.919Z,1.42
2022-08-29T17:58:22.922Z,1.20
2022-08-29T18:00:51.663Z,1.42
2022-08-29T18:03:19.690Z,1.52
2022-08-29T18:05:47.142Z,1.33
2022-08-29T18:08:14.471Z,1.15
2022-08-29T18:10:41.743Z,1.10
2022-08-29T18:13:09.109Z,1.30
2022-08-29T18:15:36.477Z,1.05
2022-08-29T18:18:04.404Z,1.27
2022-08-29T18:20:31.975Z,1.02
2022-08-29T18:22:59.253Z,1.10
2022-08-29T18:25:26.693Z,1.77
2022-08-29T18:27:54.192Z,0.98
2022-08-29T18:30:21.661Z,1.40
2022-08-29T18:32:49.312Z,1.50
2022-08-29T18:35:16.874Z,1.13
2022-08-29T18:37:44.466Z,1.50
2022-08-29T18:40:11.936Z,1.00
2022-08-29T18:42:41.242Z,1.10
2022-08-29T18:45:09.617Z,0.93
2022-08-29T18:47:37.779Z,1.00
2022-08-29T18:50:25.303Z,1.10
2022-08-29T18:52:53.105Z,1.35
2022-08-29T18:55:23.490Z,0.90
2022-08-29T18:57:51.075Z,1.48
2022-08-29T19:00:19.227Z,1.15
2022-08-29T19:02:47.135Z,0.93
2022-08-29T19:05:14.919Z,1.13
2022-08-29T19:07:42.363Z,1.08
2022-08-29T19:10:10.518Z,0.82
2022-08-29T19:12:38.280Z,1.13
2022-08-29T19:15:08.250Z,0.80
2022-08-29T19:17:35.752Z,0.98
2022-08-29T19:20:21.681Z,0.90
2022-08-29T19:22:49.445Z,1.10
2022-08-29T19:25:16.681Z,0.93
2022-08-29T19:27:44.448Z,0.90
2022-08-29T19:30:14.303Z,1.25
2022-08-29T19:32:41.529Z,1.20
2022-08-29T19:35:11.128Z,0.90
2022-08-29T19:37:43.558Z,3.42
2022-08-29T19:40:14.482Z,0.80
2022-08-29T19:42:42.341Z,1.13
2022-08-29T19:45:11.043Z,2.47
2022-08-29T19:47:38.477Z,1.40
2022-08-29T19:50:09.179Z,2.25
2022-08-29T19:52:36.808Z,1.10
2022-08-29T19:55:07.131Z,1.30
2022-08-29T19:57:36.340Z,0.98
2022-08-29T20:00:14.033Z,1.67
2022-08-29T20:02:42.415Z,1.05
2022-08-29T20:05:12.483Z,0.95
2022-08-29T20:07:41.388Z,0.95
2022-08-29T20:10:10.914Z,1.48
2022-08-29T20:12:38.174Z,0.90
2022-08-29T20:15:07.663Z,1.00
2022-08-29T20:17:39.505Z,0.70
2022-08-29T20:20:12.984Z,0.80
2022-08-29T20:22:41.089Z,0.70
2022-08-29T20:25:10.695Z,0.88
2022-08-29T20:27:38.878Z,0.85
2022-08-29T20:30:09.708Z,1.48
2022-08-29T20:32:37.939Z,0.82
2022-08-29T20:35:06.028Z,0.93
2022-08-29T20:37:33.513Z,0.90
2022-08-29T20:40:00.851Z,1.00
2022-08-29T20:42:30.449Z,0.80
2022-08-29T20:45:00.059Z,1.58
2022-08-29T20:47:27.431Z,0.82
2022-08-29T20:49:55.788Z,0.80
2022-08-29T20:52:24.411Z,1.08
2022-08-29T20:54:51.987Z,0.70
2022-08-29T20:57:19.198Z,1.00
2022-08-29T20:59:46.641Z,0.98
2022-08-29T21:02:15.501Z,0.75
2022-08-29T21:05:00.954Z,1.00
2022-08-29T21:07:28.467Z,1.05
2022-08-29T21:09:55.934Z,0.88
2022-08-29T21:12:27.327Z,0.80
2022-08-29T21:14:55.109Z,0.93
2022-08-29T21:17:22.714Z,0.90
2022-08-29T21:19:49.929Z,1.83
2022-08-29T21:22:19.769Z,1.23
2022-08-29T21:24:50.106Z,0.73
2022-08-29T21:27:17.897Z,0.63
2022-08-29T21:29:46.381Z,0.85
2022-08-29T21:32:13.624Z,0.47
2022-08-29T21:34:41.212Z,0.88
2022-08-29T21:37:08.688Z,0.75
2022-08-29T21:39:36.286Z,0.68
2022-08-29T21:42:03.709Z,0.63
2022-08-29T21:44:31.583Z,0.80
2022-08-29T21:46:58.908Z,0.77
2022-08-29T21:49:27.290Z,1.05
2022-08-29T21:51:54.671Z,1.08
2022-08-29T21:54:22.131Z,0.82
2022-08-29T21:56:50.289Z,0.60
2022-08-29T21:59:19.362Z,1.10
2022-08-29T22:01:47.477Z,0.82
2022-08-29T22:04:28.625Z,0.65
2022-08-29T22:06:58.184Z,0.80
2022-08-29T22:09:27.867Z,0.73
2022-08-29T22:11:56.229Z,0.55
2022-08-29T22:14:43.531Z,0.40
2022-08-29T22:17:11.071Z,0.85
2022-08-29T22:19:38.450Z,0.45
2022-08-29T22:22:05.964Z,0.50
2022-08-29T22:24:33.445Z,0.57
2022-08-29T22:27:00.697Z,0.47
2022-08-29T22:29:27.885Z,0.57
2022-08-29T22:31:56.883Z,0.32
2022-08-29T22:34:24.172Z,0.90
2022-08-29T22:36:51.574Z,0.70
2022-08-29T22:39:18.960Z,0.60
2022-08-29T22:41:47.659Z,0.50
2022-08-29T22:47:02.681Z,0.60
2022-08-29T22:49:32.998Z,0.60
2022-08-29T22:52:01.410Z,0.35
2022-08-29T22:54:35.082Z,0.50
2022-08-29T22:57:05.374Z,0.70
2022-08-29T22:59:33.575Z,0.40
2022-08-29T23:02:01.583Z,0.30
2022-08-29T23:04:29.823Z,0.40
2022-08-29T23:06:57.353Z,0.40
2022-08-29T23:09:24.672Z,0.47
2022-08-29T23:11:52.258Z,1.25
2022-08-29T23:14:20.958Z,0.30
2022-08-29T23:16:49.191Z,0.32
2022-08-29T23:19:16.430Z,0.40
2022-08-29T23:21:44.342Z,0.40
2022-08-29T23:24:11.831Z,0.30
2022-08-29T23:26:39.969Z,0.20
2022-08-29T23:29:07.462Z,0.50
2022-08-29T23:31:34.948Z,0.60
2022-08-29T23:34:02.564Z,0.30
2022-08-29T23:36:29.995Z,0.47
2022-08-29T23:38:57.366Z,0.30
2022-08-29T23:41:25.483Z,0.30
2022-08-29T23:43:53.010Z,0.68
2022-08-29T23:46:20.906Z,0.50
2022-08-29T23:48:48.317Z,0.80
2022-08-29T23:51:16.533Z,0.50
2022-08-29T23:53:44.965Z,0.30
2022-08-29T23:56:16.132Z,0.68
2022-08-29T23:58:44.029Z,0.50
